< < Back
Terminal Aerodrome Forecast


Current Version              Previous Versions:   1  2  3  4  5  6  7  8  9  

Terminal Aerodrome Forecast

878
FTUS44 KBMX 171200 AAA
TAFBHM
TAF AMD
KBHM 171239Z 1713/1812 08006KT P6SM BKN009
     FM171330 02006KT P6SM SKC
     FM171600 34008KT P6SM SCT045
     FM180000 00000KT P6SM SKC=

Latest METAR

051
SAUS70 KWBC 181100 RRM
MTRBHM
METAR KBHM 181053Z 00000KT 10SM SCT250 17/14 A2997 RMK AO2 SLP141
T01720139


USA.gov is the U.S. government's official web portal to all federal, state and local government web resources and services.